Thursday, October 30, 2014
13:03 UTC
  |  Log In   |  Register Free
Airport Search:

Bishop International Airport
(KFNT)

FAA data valid effective September 18, 2014 - November 13, 2014 (unless otherwise noted).

 
 
 
 
 
 
 
 
 
 
 
 
 
 

Current Aviation Weather for Bishop International Airport (KFNT)

The most recent METAR observation for KFNT was updated at: 1212
METAR Summary (Translated METAR)
KFNT
301153Z 19004KT 10SM CLR 01/M02 A3012 RMK AO2 SLP206 T00061017 10044 20000 50000
KRNP
301154Z AUTO 00000KT 10SM OVC038 04/03 A3012 RMK AO2 T00350030
(17.4 nm NW from KFNT)
KD95
301153Z AUTO 00000KT 10SM SCT027 03/00 A3011 RMK AO2 T00270003
(21.6 nm NE from KFNT)
TAF Summary (Translated TAF)
KFNT
301120Z 3012/3112 VRB03KT P6SM BKN035 FM301400 25008KT P6SM SCT040 BKN200 FM302000 23008KT P6SM BKN045 OVC120 FM310200 23005KT 6SM -SHRA OVC035 FM311000 27006KT 5SM -SHRA OVC025
  Airport Weather Conditions for KFNT

 Current Weather at FNT
33° F
Fair
South winds at 4.6 mph
FNT NOAA Radar

Pressure: 30.12 in
Humidity: 85%
Wind: South at 4.6 MPH (4 KT)
Dew Point: 28.9°F
Visibility: 10.00 mi


Airport Weather Forecast for KFNT

Translated METAR and TAF for KFNT
Translated METAR for KFNT (1258 UTC 30 October 2014)
found at http://aviationweather.gov/adds/metars/
 
METAR text: KFNT 301253Z 00000KT 10SM OVC038 02/01 A3014 RMK AO2 SLP210 T00220006
Conditions at: KFNT (FLINT , MI, US) observed 1253 UTC 30 October 2014
Temperature: 2.2°C (36°F)
Dewpoint: 0.6°C (33°F) [RH = 89%]
Pressure (altimeter): 30.14 inches Hg (1020.7 mb)
[Sea-level pressure: 1021.0 mb]
Winds: calm
Visibility: 10 or more miles (16+ km)
Ceiling: 3800 feet AGL
Clouds: overcast cloud deck at 3800 feet AGL
Weather: no significant weather observed at this time
Translated TAF for KFNT
Forecast for: KFNT (FLINT , MI, US)
TAF Text: KFNT 301120Z 3012/3112 VRB03KT P6SM BKN035
Forecast period: 1200 to 1400 UTC 30 October 2014
Forecast type: FROM: standard forecast or significant change
Winds: variable direction winds at 3 MPH (3 knots; 1.6 m/s)
Visibility: 6 or more miles (10+ km)
Ceiling: 3500 feet AGL
Clouds: broken clouds at 3500 feet AGL
Weather: no significant weather forecast for this period
TAF Text: FM301400 25008KT P6SM SCT040 BKN200
Forecast period: 1400 to 2000 UTC 30 October 2014
Forecast type: FROM: standard forecast or significant change
Winds: from the WSW (250 degrees) at 9 MPH (8 knots; 4.2 m/s)
Visibility: 6 or more miles (10+ km)
Ceiling: 20000 feet AGL
Clouds: scattered clouds at 4000 feet AGL
broken clouds at 20000 feet AGL
Weather: no significant weather forecast for this period
TAF Text: FM302000 23008KT P6SM BKN045 OVC120
Forecast period: 2000 UTC 30 October 2014 to 0200 UTC 31 October 2014
Forecast type: FROM: standard forecast or significant change
Winds: from the SW (230 degrees) at 9 MPH (8 knots; 4.2 m/s)
Visibility: 6 or more miles (10+ km)
Ceiling: 4500 feet AGL
Clouds: broken clouds at 4500 feet AGL
overcast cloud deck at 12000 feet AGL
Weather: no significant weather forecast for this period
TAF Text: FM310200 23005KT 6SM -SHRA OVC035
Forecast period: 0200 to 1000 UTC 31 October 2014
Forecast type: FROM: standard forecast or significant change
Winds: from the SW (230 degrees) at 6 MPH (5 knots; 2.6 m/s)
Visibility: 6 miles (10 km)
Ceiling: 3500 feet AGL
Clouds: overcast cloud deck at 3500 feet AGL
Weather: -SHRA  (light rain showers)
TAF Text: FM311000 27006KT 5SM -SHRA OVC025
Forecast period: 1000 to 1200 UTC 31 October 2014
Forecast type: FROM: standard forecast or significant change
Winds: from the W (270 degrees) at 7 MPH (6 knots; 3.1 m/s)
Visibility: 5 miles (8 km)
Ceiling: 2500 feet AGL
Clouds: overcast cloud deck at 2500 feet AGL
Weather: -SHRA  (light rain showers)

Find All Airport Services Find A Hotel Find A Rental Car Find A Golf Course Find A Restaurant $100 Hamburger



FBO's on the Field
FBO Company Facility Photos Services Transportation Aviation Fuel Prices: Prices include tax
Catering Weather Repair Courtesy Rental Type 100LL JetA JetA+ MOGAS 8087
 
Avflight Flint

This FBO has not yet been rated
FS:Avfuel
Last Updated: Oct-27
Login to update fuel prices
SS:
Contact Avflight FlintMore FBO Information
 
Add another FBO Facility Photos Catering Weather Repair Courtesy Rental Type 100LL JetA JetA+ MOGAS 8087
Services Transportation Aviation Fuel Prices: Prices include tax


model-print
model-print
model-print
model-print